sensor_id;sensor_type;location;lat;lon;timestamp;P1;durP1;ratioP1;P2;durP2;ratioP2
17141;SDS011;32805;53.556;9.944;2023-02-15T00:01:37;42.50;;;23.55;;
17141;SDS011;32805;53.556;9.944;2023-02-15T00:04:06;42.17;;;23.75;;
17141;SDS011;32805;53.556;9.944;2023-02-15T00:06:34;42.53;;;23.52;;
17141;SDS011;32805;53.556;9.944;2023-02-15T00:09:02;46.63;;;25.48;;
17141;SDS011;32805;53.556;9.944;2023-02-15T00:11:30;43.85;;;23.95;;
17141;SDS011;32805;53.556;9.944;2023-02-15T00:14:09;49.83;;;26.13;;
17141;SDS011;32805;53.556;9.944;2023-02-15T00:16:40;43.08;;;24.77;;
17141;SDS011;32805;53.556;9.944;2023-02-15T00:19:09;45.08;;;24.17;;
17141;SDS011;32805;53.556;9.944;2023-02-15T00:21:38;43.80;;;23.92;;
17141;SDS011;32805;53.556;9.944;2023-02-15T00:24:07;43.10;;;23.20;;
17141;SDS011;32805;53.556;9.944;2023-02-15T00:26:37;42.22;;;24.35;;
17141;SDS011;32805;53.556;9.944;2023-02-15T00:29:05;44.67;;;23.60;;
17141;SDS011;32805;53.556;9.944;2023-02-15T00:31:34;40.03;;;24.00;;
17141;SDS011;32805;53.556;9.944;2023-02-15T00:34:04;41.22;;;24.05;;
17141;SDS011;32805;53.556;9.944;2023-02-15T00:36:34;45.67;;;23.77;;
17141;SDS011;32805;53.556;9.944;2023-02-15T00:39:02;43.17;;;24.33;;
17141;SDS011;32805;53.556;9.944;2023-02-15T00:41:30;46.33;;;24.45;;
17141;SDS011;32805;53.556;9.944;2023-02-15T00:43:59;43.92;;;23.48;;
17141;SDS011;32805;53.556;9.944;2023-02-15T00:46:28;41.90;;;23.52;;
17141;SDS011;32805;53.556;9.944;2023-02-15T00:48:56;43.28;;;24.90;;
17141;SDS011;32805;53.556;9.944;2023-02-15T00:51:25;43.90;;;23.90;;
17141;SDS011;32805;53.556;9.944;2023-02-15T00:53:53;42.47;;;24.92;;
17141;SDS011;32805;53.556;9.944;2023-02-15T00:56:21;46.03;;;24.65;;
17141;SDS011;32805;53.556;9.944;2023-02-15T00:58:48;47.63;;;25.70;;
17141;SDS011;32805;53.556;9.944;2023-02-15T01:01:17;46.25;;;26.13;;
17141;SDS011;32805;53.556;9.944;2023-02-15T01:03:45;48.53;;;25.08;;
17141;SDS011;32805;53.556;9.944;2023-02-15T01:06:13;41.33;;;25.33;;
17141;SDS011;32805;53.556;9.944;2023-02-15T01:08:44;46.30;;;25.15;;
17141;SDS011;32805;53.556;9.944;2023-02-15T01:11:13;44.72;;;26.30;;
17141;SDS011;32805;53.556;9.944;2023-02-15T01:13:49;42.38;;;25.17;;
17141;SDS011;32805;53.556;9.944;2023-02-15T01:16:18;45.78;;;26.73;;
17141;SDS011;32805;53.556;9.944;2023-02-15T01:18:46;43.15;;;23.95;;
17141;SDS011;32805;53.556;9.944;2023-02-15T01:21:15;46.20;;;25.77;;
17141;SDS011;32805;53.556;9.944;2023-02-15T01:23:46;41.03;;;24.35;;
17141;SDS011;32805;53.556;9.944;2023-02-15T01:26:14;47.28;;;26.52;;
17141;SDS011;32805;53.556;9.944;2023-02-15T01:28:43;50.97;;;24.98;;
17141;SDS011;32805;53.556;9.944;2023-02-15T01:31:11;44.67;;;24.98;;
17141;SDS011;32805;53.556;9.944;2023-02-15T01:33:43;50.03;;;26.40;;
17141;SDS011;32805;53.556;9.944;2023-02-15T01:36:10;43.45;;;24.80;;
17141;SDS011;32805;53.556;9.944;2023-02-15T01:38:38;46.28;;;25.73;;
17141;SDS011;32805;53.556;9.944;2023-02-15T01:41:09;46.75;;;27.05;;
17141;SDS011;32805;53.556;9.944;2023-02-15T01:43:51;49.55;;;26.27;;
17141;SDS011;32805;53.556;9.944;2023-02-15T01:46:22;46.33;;;25.30;;
17141;SDS011;32805;53.556;9.944;2023-02-15T01:48:55;44.00;;;25.48;;
17141;SDS011;32805;53.556;9.944;2023-02-15T01:51:26;46.75;;;24.38;;
17141;SDS011;32805;53.556;9.944;2023-02-15T01:53:58;44.03;;;25.45;;
17141;SDS011;32805;53.556;9.944;2023-02-15T01:56:31;45.50;;;25.98;;
17141;SDS011;32805;53.556;9.944;2023-02-15T01:59:03;44.45;;;24.23;;
17141;SDS011;32805;53.556;9.944;2023-02-15T02:01:34;44.60;;;24.25;;
17141;SDS011;32805;53.556;9.944;2023-02-15T02:04:04;46.75;;;24.55;;
17141;SDS011;32805;53.556;9.944;2023-02-15T02:06:39;47.33;;;26.00;;
17141;SDS011;32805;53.556;9.944;2023-02-15T02:09:08;46.10;;;25.55;;
17141;SDS011;32805;53.556;9.944;2023-02-15T02:11:37;45.85;;;24.55;;
17141;SDS011;32805;53.556;9.944;2023-02-15T02:14:07;45.08;;;25.90;;
17141;SDS011;32805;53.556;9.944;2023-02-15T02:16:37;43.40;;;24.73;;
17141;SDS011;32805;53.556;9.944;2023-02-15T02:19:19;42.15;;;23.50;;
17141;SDS011;32805;53.556;9.944;2023-02-15T02:22:23;48.08;;;25.13;;
17141;SDS011;32805;53.556;9.944;2023-02-15T02:25:32;45.80;;;25.23;;
17141;SDS011;32805;53.556;9.944;2023-02-15T02:28:19;46.60;;;25.33;;
17141;SDS011;32805;53.556;9.944;2023-02-15T02:31:08;46.53;;;24.70;;
17141;SDS011;32805;53.556;9.944;2023-02-15T02:33:53;44.75;;;24.17;;
17141;SDS011;32805;53.556;9.944;2023-02-15T02:36:30;50.35;;;23.88;;
17141;SDS011;32805;53.556;9.944;2023-02-15T02:39:09;43.65;;;24.05;;
17141;SDS011;32805;53.556;9.944;2023-02-15T02:41:49;51.35;;;25.55;;
17141;SDS011;32805;53.556;9.944;2023-02-15T02:44:24;45.15;;;25.45;;
17141;SDS011;32805;53.556;9.944;2023-02-15T02:46:57;47.25;;;24.88;;
17141;SDS011;32805;53.556;9.944;2023-02-15T02:49:33;46.30;;;24.17;;
17141;SDS011;32805;53.556;9.944;2023-02-15T02:52:02;46.65;;;25.90;;
17141;SDS011;32805;53.556;9.944;2023-02-15T02:54:32;45.97;;;24.85;;
17141;SDS011;32805;53.556;9.944;2023-02-15T02:57:03;47.10;;;25.27;;
17141;SDS011;32805;53.556;9.944;2023-02-15T02:59:36;42.72;;;23.55;;
17141;SDS011;32805;53.556;9.944;2023-02-15T03:02:08;46.00;;;24.58;;
17141;SDS011;32805;53.556;9.944;2023-02-15T03:04:42;42.00;;;24.13;;
17141;SDS011;32805;53.556;9.944;2023-02-15T03:07:14;43.78;;;24.30;;
17141;SDS011;32805;53.556;9.944;2023-02-15T03:09:48;44.78;;;23.60;;
17141;SDS011;32805;53.556;9.944;2023-02-15T03:12:19;42.60;;;24.70;;
17141;SDS011;32805;53.556;9.944;2023-02-15T03:14:51;44.22;;;23.27;;
17141;SDS011;32805;53.556;9.944;2023-02-15T03:17:21;42.97;;;23.27;;
17141;SDS011;32805;53.556;9.944;2023-02-15T03:19:52;52.72;;;24.25;;
17141;SDS011;32805;53.556;9.944;2023-02-15T03:22:23;44.92;;;24.15;;
17141;SDS011;32805;53.556;9.944;2023-02-15T03:24:56;45.00;;;23.48;;
17141;SDS011;32805;53.556;9.944;2023-02-15T03:27:27;45.40;;;24.80;;
17141;SDS011;32805;53.556;9.944;2023-02-15T03:30:00;46.42;;;25.40;;
17141;SDS011;32805;53.556;9.944;2023-02-15T03:32:30;49.38;;;24.42;;
17141;SDS011;32805;53.556;9.944;2023-02-15T03:35:01;44.03;;;23.58;;
17141;SDS011;32805;53.556;9.944;2023-02-15T03:37:31;43.28;;;23.48;;
17141;SDS011;32805;53.556;9.944;2023-02-15T03:40:03;38.15;;;22.88;;
17141;SDS011;32805;53.556;9.944;2023-02-15T03:42:51;43.65;;;24.15;;
17141;SDS011;32805;53.556;9.944;2023-02-15T03:45:23;42.70;;;22.83;;
17141;SDS011;32805;53.556;9.944;2023-02-15T03:47:54;39.95;;;23.70;;
17141;SDS011;32805;53.556;9.944;2023-02-15T03:50:26;41.85;;;22.75;;
17141;SDS011;32805;53.556;9.944;2023-02-15T03:53:16;39.20;;;23.85;;
17141;SDS011;32805;53.556;9.944;2023-02-15T03:55:47;42.65;;;22.95;;
17141;SDS011;32805;53.556;9.944;2023-02-15T03:58:15;39.83;;;23.23;;
17141;SDS011;32805;53.556;9.944;2023-02-15T04:01:05;38.88;;;22.33;;
17141;SDS011;32805;53.556;9.944;2023-02-15T04:03:59;38.83;;;21.98;;
17141;SDS011;32805;53.556;9.944;2023-02-15T04:06:31;40.72;;;23.33;;
17141;SDS011;32805;53.556;9.944;2023-02-15T04:08:59;41.15;;;23.52;;
17141;SDS011;32805;53.556;9.944;2023-02-15T04:11:44;44.78;;;23.23;;
17141;SDS011;32805;53.556;9.944;2023-02-15T04:14:11;40.97;;;23.27;;
17141;SDS011;32805;53.556;9.944;2023-02-15T04:16:53;42.85;;;22.90;;
17141;SDS011;32805;53.556;9.944;2023-02-15T04:19:21;42.58;;;23.27;;
17141;SDS011;32805;53.556;9.944;2023-02-15T04:22:07;43.67;;;22.58;;
17141;SDS011;32805;53.556;9.944;2023-02-15T04:24:53;45.72;;;23.58;;
17141;SDS011;32805;53.556;9.944;2023-02-15T04:27:40;39.90;;;20.92;;
17141;SDS011;32805;53.556;9.944;2023-02-15T04:30:09;38.85;;;21.38;;
17141;SDS011;32805;53.556;9.944;2023-02-15T04:32:39;40.35;;;22.10;;
17141;SDS011;32805;53.556;9.944;2023-02-15T04:35:07;42.47;;;22.48;;
17141;SDS011;32805;53.556;9.944;2023-02-15T04:37:36;45.10;;;22.55;;
17141;SDS011;32805;53.556;9.944;2023-02-15T04:40:05;39.22;;;21.83;;
17141;SDS011;32805;53.556;9.944;2023-02-15T04:42:35;41.13;;;22.35;;
17141;SDS011;32805;53.556;9.944;2023-02-15T04:45:03;37.55;;;21.55;;
17141;SDS011;32805;53.556;9.944;2023-02-15T04:47:31;38.67;;;21.67;;
17141;SDS011;32805;53.556;9.944;2023-02-15T04:49:58;42.25;;;21.67;;
17141;SDS011;32805;53.556;9.944;2023-02-15T04:52:26;37.45;;;20.50;;
17141;SDS011;32805;53.556;9.944;2023-02-15T04:54:55;37.40;;;20.80;;
17141;SDS011;32805;53.556;9.944;2023-02-15T04:57:22;41.50;;;22.42;;
17141;SDS011;32805;53.556;9.944;2023-02-15T04:59:50;39.08;;;21.27;;
17141;SDS011;32805;53.556;9.944;2023-02-15T05:02:18;37.10;;;21.17;;
17141;SDS011;32805;53.556;9.944;2023-02-15T05:04:45;39.10;;;21.60;;
17141;SDS011;32805;53.556;9.944;2023-02-15T05:07:13;42.05;;;22.70;;
17141;SDS011;32805;53.556;9.944;2023-02-15T05:09:41;38.80;;;21.95;;
17141;SDS011;32805;53.556;9.944;2023-02-15T05:12:10;40.40;;;23.40;;
17141;SDS011;32805;53.556;9.944;2023-02-15T05:14:38;40.63;;;22.33;;
17141;SDS011;32805;53.556;9.944;2023-02-15T05:17:05;38.15;;;21.83;;
17141;SDS011;32805;53.556;9.944;2023-02-15T05:19:33;34.13;;;20.77;;
17141;SDS011;32805;53.556;9.944;2023-02-15T05:22:01;37.13;;;21.50;;
17141;SDS011;32805;53.556;9.944;2023-02-15T05:24:28;37.08;;;21.98;;
17141;SDS011;32805;53.556;9.944;2023-02-15T05:27:15;36.85;;;20.13;;
17141;SDS011;32805;53.556;9.944;2023-02-15T05:30:00;35.22;;;21.67;;
17141;SDS011;32805;53.556;9.944;2023-02-15T05:32:28;34.28;;;20.42;;
17141;SDS011;32805;53.556;9.944;2023-02-15T05:34:55;32.65;;;19.85;;
17141;SDS011;32805;53.556;9.944;2023-02-15T05:37:23;37.85;;;20.92;;
17141;SDS011;32805;53.556;9.944;2023-02-15T05:39:51;33.58;;;19.92;;
17141;SDS011;32805;53.556;9.944;2023-02-15T05:42:20;41.75;;;21.77;;
17141;SDS011;32805;53.556;9.944;2023-02-15T05:44:47;41.75;;;21.13;;
17141;SDS011;32805;53.556;9.944;2023-02-15T05:47:15;32.75;;;20.58;;
17141;SDS011;32805;53.556;9.944;2023-02-15T05:49:42;35.83;;;19.77;;
17141;SDS011;32805;53.556;9.944;2023-02-15T05:52:10;32.40;;;19.80;;
17141;SDS011;32805;53.556;9.944;2023-02-15T05:54:38;37.65;;;20.42;;
17141;SDS011;32805;53.556;9.944;2023-02-15T05:57:06;35.63;;;20.48;;
17141;SDS011;32805;53.556;9.944;2023-02-15T05:59:34;30.67;;;19.42;;
17141;SDS011;32805;53.556;9.944;2023-02-15T06:02:02;34.33;;;20.13;;
17141;SDS011;32805;53.556;9.944;2023-02-15T06:04:30;36.97;;;20.00;;
17141;SDS011;32805;53.556;9.944;2023-02-15T06:06:57;33.88;;;19.73;;
17141;SDS011;32805;53.556;9.944;2023-02-15T06:09:25;34.08;;;20.10;;
17141;SDS011;32805;53.556;9.944;2023-02-15T06:11:52;33.75;;;18.02;;
17141;SDS011;32805;53.556;9.944;2023-02-15T06:14:20;31.90;;;18.83;;
17141;SDS011;32805;53.556;9.944;2023-02-15T06:16:49;29.52;;;17.95;;
17141;SDS011;32805;53.556;9.944;2023-02-15T06:19:17;32.42;;;19.05;;
17141;SDS011;32805;53.556;9.944;2023-02-15T06:21:45;32.50;;;19.02;;
17141;SDS011;32805;53.556;9.944;2023-02-15T06:24:12;31.45;;;19.00;;
17141;SDS011;32805;53.556;9.944;2023-02-15T06:26:40;33.20;;;19.17;;
17141;SDS011;32805;53.556;9.944;2023-02-15T06:29:08;30.90;;;17.75;;
17141;SDS011;32805;53.556;9.944;2023-02-15T06:31:35;33.70;;;18.35;;
17141;SDS011;32805;53.556;9.944;2023-02-15T06:34:04;31.30;;;18.75;;
17141;SDS011;32805;53.556;9.944;2023-02-15T06:36:32;37.15;;;20.10;;
17141;SDS011;32805;53.556;9.944;2023-02-15T06:39:00;46.45;;;21.20;;
17141;SDS011;32805;53.556;9.944;2023-02-15T06:41:28;42.88;;;20.05;;
17141;SDS011;32805;53.556;9.944;2023-02-15T06:43:55;39.83;;;20.23;;
17141;SDS011;32805;53.556;9.944;2023-02-15T06:46:23;36.83;;;19.95;;
17141;SDS011;32805;53.556;9.944;2023-02-15T06:48:51;40.40;;;19.58;;
17141;SDS011;32805;53.556;9.944;2023-02-15T06:51:20;34.40;;;19.63;;
17141;SDS011;32805;53.556;9.944;2023-02-15T06:53:48;37.30;;;20.35;;
17141;SDS011;32805;53.556;9.944;2023-02-15T06:56:15;34.80;;;19.50;;
17141;SDS011;32805;53.556;9.944;2023-02-15T06:58:43;35.17;;;20.77;;
17141;SDS011;32805;53.556;9.944;2023-02-15T07:01:12;31.90;;;20.25;;
17141;SDS011;32805;53.556;9.944;2023-02-15T07:03:40;36.33;;;20.83;;
17141;SDS011;32805;53.556;9.944;2023-02-15T07:06:07;35.47;;;19.65;;
17141;SDS011;32805;53.556;9.944;2023-02-15T07:08:38;38.70;;;21.60;;
17141;SDS011;32805;53.556;9.944;2023-02-15T07:11:06;36.15;;;19.02;;
17141;SDS011;32805;53.556;9.944;2023-02-15T07:13:51;31.77;;;19.00;;
17141;SDS011;32805;53.556;9.944;2023-02-15T07:16:19;32.47;;;19.90;;
17141;SDS011;32805;53.556;9.944;2023-02-15T07:18:48;30.42;;;19.15;;
17141;SDS011;32805;53.556;9.944;2023-02-15T07:21:15;33.30;;;19.35;;
17141;SDS011;32805;53.556;9.944;2023-02-15T07:23:44;32.10;;;19.98;;
17141;SDS011;32805;53.556;9.944;2023-02-15T07:26:12;34.15;;;20.52;;
17141;SDS011;32805;53.556;9.944;2023-02-15T07:28:40;32.65;;;19.73;;
17141;SDS011;32805;53.556;9.944;2023-02-15T07:31:07;33.00;;;19.85;;
17141;SDS011;32805;53.556;9.944;2023-02-15T07:33:35;30.92;;;19.98;;
17141;SDS011;32805;53.556;9.944;2023-02-15T07:36:03;28.83;;;18.48;;
17141;SDS011;32805;53.556;9.944;2023-02-15T07:38:33;32.78;;;19.17;;
17141;SDS011;32805;53.556;9.944;2023-02-15T07:41:04;32.50;;;20.80;;
17141;SDS011;32805;53.556;9.944;2023-02-15T07:43:34;32.40;;;19.00;;
17141;SDS011;32805;53.556;9.944;2023-02-15T07:46:04;31.48;;;19.15;;
17141;SDS011;32805;53.556;9.944;2023-02-15T07:48:41;34.15;;;20.17;;
17141;SDS011;32805;53.556;9.944;2023-02-15T07:51:11;32.78;;;20.10;;
17141;SDS011;32805;53.556;9.944;2023-02-15T07:53:40;30.73;;;18.85;;
17141;SDS011;32805;53.556;9.944;2023-02-15T07:56:09;33.42;;;19.73;;
17141;SDS011;32805;53.556;9.944;2023-02-15T07:58:38;33.20;;;19.17;;
17141;SDS011;32805;53.556;9.944;2023-02-15T08:01:18;31.77;;;19.15;;
17141;SDS011;32805;53.556;9.944;2023-02-15T08:03:49;34.47;;;19.55;;
17141;SDS011;32805;53.556;9.944;2023-02-15T08:06:17;34.95;;;20.65;;
17141;SDS011;32805;53.556;9.944;2023-02-15T08:08:44;33.22;;;20.55;;
17141;SDS011;32805;53.556;9.944;2023-02-15T08:11:16;35.45;;;21.38;;
17141;SDS011;32805;53.556;9.944;2023-02-15T08:13:52;33.92;;;19.48;;
17141;SDS011;32805;53.556;9.944;2023-02-15T08:16:22;33.33;;;19.20;;
17141;SDS011;32805;53.556;9.944;2023-02-15T08:18:52;34.55;;;20.05;;
17141;SDS011;32805;53.556;9.944;2023-02-15T08:21:20;32.40;;;19.60;;
17141;SDS011;32805;53.556;9.944;2023-02-15T08:23:50;32.15;;;19.75;;
17141;SDS011;32805;53.556;9.944;2023-02-15T08:26:20;31.92;;;20.02;;
17141;SDS011;32805;53.556;9.944;2023-02-15T08:28:48;36.42;;;20.20;;
17141;SDS011;32805;53.556;9.944;2023-02-15T08:31:18;36.65;;;21.02;;
17141;SDS011;32805;53.556;9.944;2023-02-15T08:33:47;34.03;;;21.05;;
17141;SDS011;32805;53.556;9.944;2023-02-15T08:36:18;33.00;;;20.02;;
17141;SDS011;32805;53.556;9.944;2023-02-15T08:38:47;32.67;;;19.98;;
17141;SDS011;32805;53.556;9.944;2023-02-15T08:41:15;33.33;;;20.40;;
17141;SDS011;32805;53.556;9.944;2023-02-15T08:43:45;32.40;;;19.60;;
17141;SDS011;32805;53.556;9.944;2023-02-15T08:46:15;34.80;;;21.13;;
17141;SDS011;32805;53.556;9.944;2023-02-15T08:48:43;34.85;;;19.95;;
17141;SDS011;32805;53.556;9.944;2023-02-15T08:51:12;37.25;;;20.77;;
17141;SDS011;32805;53.556;9.944;2023-02-15T08:53:43;32.85;;;19.30;;
17141;SDS011;32805;53.556;9.944;2023-02-15T08:56:12;31.67;;;19.13;;
17141;SDS011;32805;53.556;9.944;2023-02-15T08:58:40;33.58;;;19.55;;
17141;SDS011;32805;53.556;9.944;2023-02-15T09:01:08;28.02;;;18.50;;
17141;SDS011;32805;53.556;9.944;2023-02-15T09:03:36;32.67;;;19.90;;
17141;SDS011;32805;53.556;9.944;2023-02-15T09:06:05;33.17;;;19.48;;
17141;SDS011;32805;53.556;9.944;2023-02-15T09:08:33;32.33;;;20.30;;
17141;SDS011;32805;53.556;9.944;2023-02-15T09:11:05;31.13;;;19.38;;
17141;SDS011;32805;53.556;9.944;2023-02-15T09:13:34;28.33;;;17.45;;
17141;SDS011;32805;53.556;9.944;2023-02-15T09:16:03;32.40;;;19.98;;
17141;SDS011;32805;53.556;9.944;2023-02-15T09:18:34;31.10;;;18.48;;
17141;SDS011;32805;53.556;9.944;2023-02-15T09:21:04;32.40;;;18.80;;
17141;SDS011;32805;53.556;9.944;2023-02-15T09:23:33;32.03;;;18.23;;
17141;SDS011;32805;53.556;9.944;2023-02-15T09:26:02;29.38;;;18.52;;
17141;SDS011;32805;53.556;9.944;2023-02-15T09:28:32;33.90;;;20.65;;
17141;SDS011;32805;53.556;9.944;2023-02-15T09:31:04;30.10;;;19.02;;
17141;SDS011;32805;53.556;9.944;2023-02-15T09:33:33;32.08;;;18.50;;
17141;SDS011;32805;53.556;9.944;2023-02-15T09:36:02;30.50;;;18.27;;
17141;SDS011;32805;53.556;9.944;2023-02-15T09:38:30;30.50;;;20.05;;
17141;SDS011;32805;53.556;9.944;2023-02-15T09:41:03;27.70;;;18.33;;
17141;SDS011;32805;53.556;9.944;2023-02-15T09:43:46;28.38;;;18.80;;
17141;SDS011;32805;53.556;9.944;2023-02-15T09:46:27;31.63;;;18.83;;
17141;SDS011;32805;53.556;9.944;2023-02-15T09:49:06;32.08;;;18.73;;
17141;SDS011;32805;53.556;9.944;2023-02-15T09:51:56;32.08;;;19.30;;
17141;SDS011;32805;53.556;9.944;2023-02-15T09:54:38;32.13;;;19.42;;
17141;SDS011;32805;53.556;9.944;2023-02-15T09:57:17;36.47;;;20.33;;
17141;SDS011;32805;53.556;9.944;2023-02-15T09:59:53;34.85;;;19.55;;
17141;SDS011;32805;53.556;9.944;2023-02-15T10:02:41;33.53;;;21.40;;
17141;SDS011;32805;53.556;9.944;2023-02-15T10:05:24;34.38;;;20.35;;
17141;SDS011;32805;53.556;9.944;2023-02-15T10:08:06;36.30;;;19.88;;
17141;SDS011;32805;53.556;9.944;2023-02-15T10:10:44;32.08;;;19.17;;
17141;SDS011;32805;53.556;9.944;2023-02-15T10:13:27;35.60;;;20.60;;
17141;SDS011;32805;53.556;9.944;2023-02-15T10:16:05;31.05;;;19.55;;
17141;SDS011;32805;53.556;9.944;2023-02-15T10:18:50;30.23;;;19.73;;
17141;SDS011;32805;53.556;9.944;2023-02-15T10:21:26;35.38;;;20.23;;
17141;SDS011;32805;53.556;9.944;2023-02-15T10:24:22;31.55;;;20.08;;
17141;SDS011;32805;53.556;9.944;2023-02-15T10:27:11;34.90;;;21.05;;
17141;SDS011;32805;53.556;9.944;2023-02-15T10:29:41;33.33;;;21.13;;
17141;SDS011;32805;53.556;9.944;2023-02-15T10:32:21;36.38;;;23.00;;
17141;SDS011;32805;53.556;9.944;2023-02-15T10:34:51;30.00;;;20.05;;
17141;SDS011;32805;53.556;9.944;2023-02-15T10:40:22;33.92;;;21.55;;
17141;SDS011;32805;53.556;9.944;2023-02-15T10:42:59;32.88;;;19.98;;
17141;SDS011;32805;53.556;9.944;2023-02-15T10:45:40;37.63;;;22.35;;
17141;SDS011;32805;53.556;9.944;2023-02-15T10:48:32;34.42;;;20.95;;
17141;SDS011;32805;53.556;9.944;2023-02-15T10:51:12;34.67;;;21.95;;
17141;SDS011;32805;53.556;9.944;2023-02-15T10:53:55;33.83;;;22.45;;
17141;SDS011;32805;53.556;9.944;2023-02-15T10:56:38;32.25;;;21.20;;
17141;SDS011;32805;53.556;9.944;2023-02-15T10:59:26;34.95;;;22.25;;
17141;SDS011;32805;53.556;9.944;2023-02-15T11:02:07;38.25;;;23.10;;
17141;SDS011;32805;53.556;9.944;2023-02-15T11:04:46;33.78;;;22.88;;
17141;SDS011;32805;53.556;9.944;2023-02-15T11:07:21;30.02;;;21.33;;
17141;SDS011;32805;53.556;9.944;2023-02-15T11:09:53;37.65;;;23.52;;
17141;SDS011;32805;53.556;9.944;2023-02-15T11:12:28;42.05;;;24.10;;
17141;SDS011;32805;53.556;9.944;2023-02-15T11:14:58;38.53;;;23.48;;
17141;SDS011;32805;53.556;9.944;2023-02-15T11:17:30;34.35;;;21.98;;
17141;SDS011;32805;53.556;9.944;2023-02-15T11:20:08;37.65;;;22.50;;
17141;SDS011;32805;53.556;9.944;2023-02-15T11:22:46;39.35;;;25.13;;
17141;SDS011;32805;53.556;9.944;2023-02-15T11:25:17;35.55;;;22.25;;
17141;SDS011;32805;53.556;9.944;2023-02-15T11:27:56;36.28;;;23.48;;
17141;SDS011;32805;53.556;9.944;2023-02-15T11:30:25;40.38;;;24.65;;
17141;SDS011;32805;53.556;9.944;2023-02-15T11:32:57;36.08;;;23.77;;
17141;SDS011;32805;53.556;9.944;2023-02-15T11:35:32;38.58;;;24.90;;
17141;SDS011;32805;53.556;9.944;2023-02-15T11:38:06;39.25;;;24.67;;
17141;SDS011;32805;53.556;9.944;2023-02-15T11:40:41;38.17;;;24.00;;
17141;SDS011;32805;53.556;9.944;2023-02-15T11:43:15;38.83;;;24.42;;
17141;SDS011;32805;53.556;9.944;2023-02-15T11:45:46;40.03;;;25.70;;
17141;SDS011;32805;53.556;9.944;2023-02-15T11:48:14;39.88;;;24.60;;
17141;SDS011;32805;53.556;9.944;2023-02-15T11:50:45;40.72;;;26.10;;
17141;SDS011;32805;53.556;9.944;2023-02-15T11:53:13;38.92;;;25.73;;
17141;SDS011;32805;53.556;9.944;2023-02-15T11:55:43;41.58;;;25.65;;
17141;SDS011;32805;53.556;9.944;2023-02-15T11:58:15;37.92;;;23.75;;
17141;SDS011;32805;53.556;9.944;2023-02-15T12:00:50;38.17;;;26.00;;
17141;SDS011;32805;53.556;9.944;2023-02-15T12:03:22;36.83;;;24.05;;
17141;SDS011;32805;53.556;9.944;2023-02-15T12:05:56;37.50;;;24.05;;
17141;SDS011;32805;53.556;9.944;2023-02-15T12:08:28;38.15;;;23.67;;
17141;SDS011;32805;53.556;9.944;2023-02-15T12:11:05;36.20;;;24.02;;
17141;SDS011;32805;53.556;9.944;2023-02-15T12:13:46;38.60;;;24.05;;
17141;SDS011;32805;53.556;9.944;2023-02-15T12:16:21;39.35;;;24.63;;
17141;SDS011;32805;53.556;9.944;2023-02-15T12:18:49;38.97;;;24.13;;
17141;SDS011;32805;53.556;9.944;2023-02-15T12:21:26;37.70;;;23.55;;
17141;SDS011;32805;53.556;9.944;2023-02-15T12:23:56;40.13;;;24.00;;
17141;SDS011;32805;53.556;9.944;2023-02-15T12:26:27;34.90;;;23.77;;
17141;SDS011;32805;53.556;9.944;2023-02-15T12:28:58;37.92;;;24.50;;
17141;SDS011;32805;53.556;9.944;2023-02-15T12:31:31;37.08;;;23.67;;
17141;SDS011;32805;53.556;9.944;2023-02-15T12:34:02;37.33;;;23.40;;
17141;SDS011;32805;53.556;9.944;2023-02-15T12:36:42;37.15;;;25.25;;
17141;SDS011;32805;53.556;9.944;2023-02-15T12:39:17;37.92;;;23.83;;
17141;SDS011;32805;53.556;9.944;2023-02-15T12:41:56;39.60;;;24.83;;
17141;SDS011;32805;53.556;9.944;2023-02-15T12:44:26;35.88;;;24.10;;
17141;SDS011;32805;53.556;9.944;2023-02-15T12:46:55;36.55;;;24.75;;
17141;SDS011;32805;53.556;9.944;2023-02-15T12:49:25;36.10;;;23.50;;
17141;SDS011;32805;53.556;9.944;2023-02-15T12:51:55;40.95;;;24.85;;
17141;SDS011;32805;53.556;9.944;2023-02-15T12:54:29;35.50;;;23.55;;
17141;SDS011;32805;53.556;9.944;2023-02-15T12:57:12;38.53;;;25.20;;
17141;SDS011;32805;53.556;9.944;2023-02-15T12:59:51;35.47;;;24.23;;
17141;SDS011;32805;53.556;9.944;2023-02-15T13:02:22;34.38;;;23.50;;
17141;SDS011;32805;53.556;9.944;2023-02-15T13:04:52;36.60;;;24.65;;
17141;SDS011;32805;53.556;9.944;2023-02-15T13:07:22;38.85;;;23.75;;
17141;SDS011;32805;53.556;9.944;2023-02-15T13:09:51;37.63;;;25.08;;
17141;SDS011;32805;53.556;9.944;2023-02-15T13:12:20;39.00;;;25.67;;
17141;SDS011;32805;53.556;9.944;2023-02-15T13:14:50;40.65;;;24.67;;
17141;SDS011;32805;53.556;9.944;2023-02-15T13:17:21;36.55;;;23.45;;
17141;SDS011;32805;53.556;9.944;2023-02-15T13:19:56;34.65;;;24.45;;
17141;SDS011;32805;53.556;9.944;2023-02-15T13:22:31;34.83;;;23.85;;
17141;SDS011;32805;53.556;9.944;2023-02-15T13:25:08;36.33;;;24.30;;
17141;SDS011;32805;53.556;9.944;2023-02-15T13:27:41;39.00;;;25.58;;
17141;SDS011;32805;53.556;9.944;2023-02-15T13:30:14;33.90;;;22.90;;
17141;SDS011;32805;53.556;9.944;2023-02-15T13:32:49;37.42;;;23.80;;
17141;SDS011;32805;53.556;9.944;2023-02-15T13:35:19;37.42;;;24.05;;
17141;SDS011;32805;53.556;9.944;2023-02-15T13:37:55;36.15;;;24.50;;
17141;SDS011;32805;53.556;9.944;2023-02-15T13:40:43;34.75;;;22.35;;
17141;SDS011;32805;53.556;9.944;2023-02-15T13:43:22;35.05;;;23.48;;
17141;SDS011;32805;53.556;9.944;2023-02-15T13:45:58;33.80;;;23.92;;
17141;SDS011;32805;53.556;9.944;2023-02-15T13:48:36;34.78;;;23.25;;
17141;SDS011;32805;53.556;9.944;2023-02-15T13:51:18;31.15;;;21.15;;
17141;SDS011;32805;53.556;9.944;2023-02-15T13:53:54;33.00;;;21.05;;
17141;SDS011;32805;53.556;9.944;2023-02-15T13:56:34;30.15;;;20.05;;
17141;SDS011;32805;53.556;9.944;2023-02-15T13:59:20;31.73;;;22.05;;
17141;SDS011;32805;53.556;9.944;2023-02-15T14:01:58;30.60;;;21.90;;
17141;SDS011;32805;53.556;9.944;2023-02-15T14:04:59;27.63;;;20.27;;
17141;SDS011;32805;53.556;9.944;2023-02-15T14:07:47;29.25;;;20.63;;
17141;SDS011;32805;53.556;9.944;2023-02-15T14:13:17;27.13;;;19.67;;
17141;SDS011;32805;53.556;9.944;2023-02-15T14:16:11;27.30;;;19.10;;
17141;SDS011;32805;53.556;9.944;2023-02-15T14:18:48;27.00;;;18.65;;
17141;SDS011;32805;53.556;9.944;2023-02-15T14:21:25;33.30;;;21.13;;
17141;SDS011;32805;53.556;9.944;2023-02-15T14:24:05;24.42;;;18.20;;
17141;SDS011;32805;53.556;9.944;2023-02-15T14:26:47;26.88;;;19.80;;
17141;SDS011;32805;53.556;9.944;2023-02-15T14:29:20;29.25;;;20.23;;
17141;SDS011;32805;53.556;9.944;2023-02-15T14:31:56;24.25;;;18.08;;
17141;SDS011;32805;53.556;9.944;2023-02-15T14:34:27;25.63;;;18.42;;
17141;SDS011;32805;53.556;9.944;2023-02-15T14:37:01;27.30;;;18.30;;
17141;SDS011;32805;53.556;9.944;2023-02-15T14:39:31;24.15;;;17.70;;
17141;SDS011;32805;53.556;9.944;2023-02-15T14:42:25;28.67;;;18.77;;
17141;SDS011;32805;53.556;9.944;2023-02-15T14:45:01;27.42;;;19.67;;
17141;SDS011;32805;53.556;9.944;2023-02-15T14:47:33;25.15;;;18.38;;
17141;SDS011;32805;53.556;9.944;2023-02-15T14:53:22;24.45;;;17.98;;
17141;SDS011;32805;53.556;9.944;2023-02-15T14:56:06;25.63;;;17.95;;
17141;SDS011;32805;53.556;9.944;2023-02-15T14:58:57;25.77;;;17.00;;
17141;SDS011;32805;53.556;9.944;2023-02-15T15:01:27;23.75;;;17.38;;
17141;SDS011;32805;53.556;9.944;2023-02-15T15:03:57;25.35;;;17.58;;